Terminal Aerodrome Forecast
Issued by NWS

Home | Current Version | Previous Version | Graphics & Text | Print | Product List | Glossary On
Versions: 1 2 3 4 5 6 7 8 9 10 11 12 13 14 15 16 17 18
252
FTUS43 KBIS 250327 AAC
TAFMOT
TAF AMD
KMOT 250327Z 2503/2524 14016KT P6SM VCTS SCT080CB SCT250
      TEMPO 2503/2504 VRB25G35KT 1SM TSRAGR OVC060CB
     FM250400 30006KT P6SM VCTS BKN080CB
     FM250500 31008KT P6SM SCT080
     FM251700 29010KT P6SM FEW250=

USA.gov is the U.S. government's official web portal to all federal, state and local government web resources and services.